createdAt,value
2022-08-08T00:00:54.072Z,1018.34
2022-08-08T00:00:55.705Z,1018.30
2022-08-08T00:02:04.069Z,1018.30
2022-08-08T00:02:33.594Z,1018.34
2022-08-08T00:03:32.913Z,1018.31
2022-08-08T00:04:31.959Z,1018.29
2022-08-08T00:05:43.723Z,1018.30
2022-08-08T00:06:35.049Z,1018.33
2022-08-08T00:07:31.868Z,1018.30
2022-08-08T00:08:31.857Z,1018.35
2022-08-08T00:09:33.188Z,1018.29
2022-08-08T00:10:32.079Z,1018.29
2022-08-08T00:12:03.020Z,1018.30
2022-08-08T00:12:32.858Z,1018.32
2022-08-08T00:14:15.591Z,1018.28
2022-08-08T00:14:48.127Z,1018.31
2022-08-08T00:15:56.178Z,1018.31
2022-08-08T00:16:32.765Z,1018.33
2022-08-08T00:17:35.286Z,1018.32
2022-08-08T00:18:32.862Z,1018.33
2022-08-08T00:19:31.733Z,1018.33
2022-08-08T00:20:31.725Z,1018.31
2022-08-08T00:21:39.808Z,1018.35
2022-08-08T00:22:32.709Z,1018.34
2022-08-08T00:23:42.486Z,1018.33
2022-08-08T00:24:32.689Z,1018.33
2022-08-08T00:25:44.963Z,1018.33
2022-08-08T00:26:32.660Z,1018.33
2022-08-08T00:27:34.860Z,1018.33
2022-08-08T00:28:35.315Z,1018.34
2022-08-08T00:29:44.968Z,1018.32
2022-08-08T00:30:32.605Z,1018.36
2022-08-08T00:32:28.292Z,1018.31
2022-08-08T00:32:35.515Z,1018.29
2022-08-08T00:34:17.547Z,1018.27
2022-08-08T00:34:32.563Z,1018.29
2022-08-08T00:35:34.338Z,1018.28
2022-08-08T00:36:35.279Z,1018.30
2022-08-08T00:37:47.238Z,1018.32
2022-08-08T00:38:44.485Z,1018.35
2022-08-08T00:41:07.003Z,1018.30
2022-08-08T00:41:12.950Z,1018.32
2022-08-08T00:41:55.592Z,1018.32
2022-08-08T00:42:36.675Z,1018.33
2022-08-08T00:43:40.745Z,1018.34
2022-08-08T00:44:32.454Z,1018.35
2022-08-08T00:45:32.425Z,1018.39
2022-08-08T00:46:32.234Z,1018.36
2022-08-08T00:47:36.777Z,1018.35
2022-08-08T00:48:33.875Z,1018.37
2022-08-08T00:49:33.160Z,1018.35
2022-08-08T00:50:31.381Z,1018.33
2022-08-08T00:51:39.130Z,1018.32
2022-08-08T00:52:39.212Z,1018.34
2022-08-08T00:53:32.368Z,1018.36
2022-08-08T00:54:32.336Z,1018.36
2022-08-08T00:55:53.320Z,1018.41
2022-08-08T00:56:32.318Z,1018.38
2022-08-08T00:57:34.050Z,1018.36
2022-08-08T00:58:31.901Z,1018.39
2022-08-08T00:59:44.709Z,1018.41
2022-08-08T01:00:37.421Z,1018.37
2022-08-08T01:01:37.810Z,1018.37
2022-08-08T01:03:59.822Z,1018.37
2022-08-08T01:04:02.216Z,1018.38
2022-08-08T01:04:32.224Z,1018.34
2022-08-08T01:05:58.593Z,1018.34
2022-08-08T01:06:32.204Z,1018.33
2022-08-08T01:07:34.677Z,1018.31
2022-08-08T01:08:32.195Z,1018.35
2022-08-08T01:09:36.735Z,1018.37
2022-08-08T01:10:32.157Z,1018.38
2022-08-08T01:11:31.145Z,1018.35
2022-08-08T01:12:31.458Z,1018.35
2022-08-08T01:13:43.283Z,1018.28
2022-08-08T01:14:53.142Z,1018.32
2022-08-08T01:15:43.963Z,1018.29
2022-08-08T01:16:32.091Z,1018.30
2022-08-08T01:17:51.701Z,1018.30
2022-08-08T01:18:53.442Z,1018.30
2022-08-08T01:19:52.066Z,1018.28
2022-08-08T01:20:32.683Z,1018.26
2022-08-08T01:22:03.898Z,1018.28
2022-08-08T01:22:35.025Z,1018.27
2022-08-08T01:24:03.834Z,1018.25
2022-08-08T01:24:32.685Z,1018.27
2022-08-08T01:25:40.763Z,1018.24
2022-08-08T01:26:32.381Z,1018.25
2022-08-08T01:27:32.926Z,1018.24
2022-08-08T01:28:31.688Z,1018.25
2022-08-08T01:29:35.380Z,1018.27
2022-08-08T01:30:31.932Z,1018.25
2022-08-08T01:32:13.012Z,1018.22
2022-08-08T01:32:32.114Z,1018.21
2022-08-08T01:33:33.861Z,1018.24
2022-08-08T01:34:31.889Z,1018.22
2022-08-08T01:35:30.878Z,1018.26
2022-08-08T01:36:31.865Z,1018.33
2022-08-08T01:37:56.664Z,1018.30
2022-08-08T01:38:31.937Z,1018.28
2022-08-08T01:39:34.642Z,1018.33
2022-08-08T01:40:30.823Z,1018.28
2022-08-08T01:41:34.066Z,1018.32
2022-08-08T01:42:36.532Z,1018.29
2022-08-08T01:43:34.699Z,1018.32
2022-08-08T01:44:31.774Z,1018.29
2022-08-08T01:45:30.764Z,1018.32
2022-08-08T01:46:31.224Z,1018.29
2022-08-08T01:48:14.138Z,1018.26
2022-08-08T01:48:31.811Z,1018.33
2022-08-08T01:49:37.747Z,1018.30
2022-08-08T01:50:33.955Z,1018.25
2022-08-08T01:52:12.766Z,1018.26
2022-08-08T01:53:06.973Z,1018.25
2022-08-08T01:55:17.936Z,1018.23
2022-08-08T01:55:27.052Z,1018.22
2022-08-08T01:56:29.335Z,1018.23
2022-08-08T01:56:34.444Z,1018.18
2022-08-08T01:57:33.732Z,1018.20
2022-08-08T01:58:32.077Z,1018.23
2022-08-08T01:59:43.983Z,1018.18
2022-08-08T02:00:31.618Z,1018.19
2022-08-08T02:01:54.600Z,1018.18
2022-08-08T02:02:34.858Z,1018.16
2022-08-08T02:03:54.355Z,1018.14
2022-08-08T02:04:31.548Z,1018.10
2022-08-08T02:05:33.628Z,1018.09
2022-08-08T02:06:36.399Z,1018.09
2022-08-08T02:07:41.479Z,1018.10
2022-08-08T02:08:33.823Z,1018.11
2022-08-08T02:10:02.248Z,1018.11
2022-08-08T02:10:36.834Z,1018.08
2022-08-08T02:11:58.648Z,1018.11
2022-08-08T02:12:31.842Z,1018.10
2022-08-08T02:13:53.336Z,1018.08
2022-08-08T02:14:31.449Z,1018.15
2022-08-08T02:15:30.427Z,1018.12
2022-08-08T02:16:30.408Z,1018.10
2022-08-08T02:17:36.533Z,1018.08
2022-08-08T02:18:31.385Z,1018.09
2022-08-08T02:20:07.346Z,1018.12
2022-08-08T02:21:00.144Z,1018.07
2022-08-08T02:21:39.722Z,1018.10
2022-08-08T02:22:31.617Z,1018.14
2022-08-08T02:23:32.185Z,1018.12
2022-08-08T02:24:30.607Z,1018.15
2022-08-08T02:25:43.614Z,1018.17
2022-08-08T02:26:31.298Z,1018.20
2022-08-08T02:27:40.317Z,1018.15
2022-08-08T02:28:34.925Z,1018.19
2022-08-08T02:29:41.647Z,1018.20
2022-08-08T02:30:31.279Z,1018.18
2022-08-08T02:31:58.390Z,1018.14
2022-08-08T02:32:31.233Z,1018.20
2022-08-08T02:33:41.452Z,1018.22
2022-08-08T02:34:33.415Z,1018.19
2022-08-08T02:35:30.197Z,1018.21
2022-08-08T02:36:31.185Z,1018.22
2022-08-08T02:37:52.580Z,1018.21
2022-08-08T02:38:31.177Z,1018.19
2022-08-08T02:39:40.944Z,1018.23
2022-08-08T02:40:31.197Z,1018.22
2022-08-08T02:42:04.487Z,1018.22
2022-08-08T02:42:38.499Z,1018.19
2022-08-08T02:44:37.668Z,1018.25
2022-08-08T02:44:42.940Z,1018.22
2022-08-08T02:45:31.077Z,1018.19
2022-08-08T02:46:30.090Z,1018.21
2022-08-08T02:47:32.086Z,1018.22
2022-08-08T02:48:30.051Z,1018.22
2022-08-08T02:49:47.731Z,1018.23
2022-08-08T02:50:31.020Z,1018.27
2022-08-08T02:51:46.514Z,1018.21
2022-08-08T02:52:34.602Z,1018.22
2022-08-08T02:53:30.549Z,1018.22
2022-08-08T02:54:29.978Z,1018.25
2022-08-08T02:55:31.921Z,1018.22
2022-08-08T02:56:30.951Z,1018.23
2022-08-08T02:57:40.648Z,1018.22
2022-08-08T02:58:30.935Z,1018.24
2022-08-08T02:59:40.331Z,1018.22
2022-08-08T03:00:33.515Z,1018.21
2022-08-08T03:01:32.755Z,1018.23
2022-08-08T03:02:30.894Z,1018.25
2022-08-08T03:05:01.422Z,1018.20
2022-08-08T03:05:05.355Z,1018.28
2022-08-08T03:05:45.442Z,1018.27
2022-08-08T03:06:34.556Z,1018.28
2022-08-08T03:07:41.772Z,1018.27
2022-08-08T03:08:30.818Z,1018.29
2022-08-08T03:09:29.809Z,1018.26
2022-08-08T03:10:33.508Z,1018.31
2022-08-08T03:12:00.977Z,1018.28
2022-08-08T03:12:36.521Z,1018.33
2022-08-08T03:15:53.920Z,1018.30
2022-08-08T03:15:56.685Z,1018.29
2022-08-08T03:15:59.350Z,1018.27
2022-08-08T03:16:35.734Z,1018.28
2022-08-08T03:17:39.451Z,1018.32
2022-08-08T03:18:30.721Z,1018.35
2022-08-08T03:19:29.718Z,1018.31
2022-08-08T03:20:29.725Z,1018.33
2022-08-08T03:21:40.702Z,1018.41
2022-08-08T03:22:40.471Z,1018.40
2022-08-08T03:23:56.242Z,1018.39
2022-08-08T03:24:30.671Z,1018.39
2022-08-08T03:25:35.914Z,1018.45
2022-08-08T03:26:31.026Z,1018.45
2022-08-08T03:27:29.603Z,1018.38
2022-08-08T03:28:30.597Z,1018.40
2022-08-08T03:29:54.912Z,1018.39
2022-08-08T03:30:32.145Z,1018.39
2022-08-08T03:31:37.953Z,1018.39
2022-08-08T03:32:30.965Z,1018.36
2022-08-08T03:34:00.238Z,1018.39
2022-08-08T03:34:30.730Z,1018.38
2022-08-08T03:35:33.139Z,1018.40
2022-08-08T03:36:30.647Z,1018.43
2022-08-08T03:37:59.313Z,1018.43
2022-08-08T03:38:57.151Z,1018.39
2022-08-08T03:39:30.536Z,1018.38
2022-08-08T03:40:32.054Z,1018.40
2022-08-08T03:42:29.101Z,1018.39
2022-08-08T03:42:30.989Z,1018.40
2022-08-08T03:43:38.255Z,1018.40
2022-08-08T03:44:30.417Z,1018.46
2022-08-08T03:46:05.168Z,1018.44
2022-08-08T03:46:32.694Z,1018.46
2022-08-08T03:47:45.512Z,1018.47
2022-08-08T03:49:09.883Z,1018.48
2022-08-08T03:49:58.756Z,1018.50
2022-08-08T03:50:30.351Z,1018.45
2022-08-08T03:51:50.496Z,1018.49
2022-08-08T03:52:30.677Z,1018.49
2022-08-08T03:53:42.640Z,1018.46
2022-08-08T03:54:41.105Z,1018.46
2022-08-08T03:55:57.899Z,1018.44
2022-08-08T03:56:31.672Z,1018.43
2022-08-08T03:58:33.348Z,1018.41
2022-08-08T03:58:37.255Z,1018.45
2022-08-08T03:59:30.324Z,1018.42
2022-08-08T04:00:30.590Z,1018.44
2022-08-08T04:02:02.271Z,1018.47
2022-08-08T04:02:36.615Z,1018.47
2022-08-08T04:03:57.790Z,1018.49
2022-08-08T04:04:30.429Z,1018.50
2022-08-08T04:05:29.308Z,1018.49
2022-08-08T04:06:30.312Z,1018.51
2022-08-08T04:07:29.167Z,1018.50
2022-08-08T04:08:32.889Z,1018.52
2022-08-08T04:09:39.697Z,1018.54
2022-08-08T04:10:32.145Z,1018.53
2022-08-08T04:11:29.246Z,1018.53
2022-08-08T04:12:29.398Z,1018.53
2022-08-08T04:13:29.121Z,1018.55
2022-08-08T04:14:34.806Z,1018.60
2022-08-08T04:15:30.353Z,1018.60
2022-08-08T04:16:38.777Z,1018.60
2022-08-08T04:17:46.010Z,1018.57
2022-08-08T04:18:30.051Z,1018.58
2022-08-08T04:19:29.021Z,1018.58
2022-08-08T04:20:30.013Z,1018.61
2022-08-08T04:21:29.381Z,1018.61
2022-08-08T04:22:30.158Z,1018.59
2022-08-08T04:23:33.142Z,1018.62
2022-08-08T04:24:30.943Z,1018.63
2022-08-08T04:25:30.061Z,1018.65
2022-08-08T04:26:35.431Z,1018.64
2022-08-08T04:28:03.575Z,1018.70
2022-08-08T04:28:36.913Z,1018.68
2022-08-08T04:29:37.027Z,1018.69
2022-08-08T04:30:29.898Z,1018.72
2022-08-08T04:31:56.733Z,1018.69
2022-08-08T04:32:30.837Z,1018.73
2022-08-08T04:33:28.887Z,1018.72
2022-08-08T04:34:32.360Z,1018.75
2022-08-08T04:35:33.402Z,1018.73
2022-08-08T04:36:29.838Z,1018.75
2022-08-08T04:37:32.421Z,1018.74
2022-08-08T04:38:28.909Z,1018.76
2022-08-08T04:40:04.127Z,1018.79
2022-08-08T04:40:29.835Z,1018.76
2022-08-08T04:41:35.792Z,1018.82
2022-08-08T04:42:30.027Z,1018.77
2022-08-08T04:43:32.022Z,1018.80
2022-08-08T04:44:29.831Z,1018.83
2022-08-08T04:45:28.754Z,1018.83
2022-08-08T04:46:31.062Z,1018.85
2022-08-08T04:47:28.716Z,1018.84
2022-08-08T04:48:28.705Z,1018.87
2022-08-08T04:50:01.259Z,1018.90
2022-08-08T04:50:37.917Z,1018.86
2022-08-08T04:51:55.268Z,1018.85
2022-08-08T04:52:33.707Z,1018.86
2022-08-08T04:54:27.047Z,1018.89
2022-08-08T04:54:41.898Z,1018.90
2022-08-08T04:55:47.017Z,1018.90
2022-08-08T04:56:29.636Z,1018.90
2022-08-08T04:57:28.743Z,1018.93
2022-08-08T04:58:28.593Z,1018.90
2022-08-08T04:59:29.963Z,1018.92
2022-08-08T05:00:28.578Z,1018.91
2022-08-08T05:01:35.382Z,1018.90
2022-08-08T05:02:31.148Z,1018.93
2022-08-08T05:04:11.160Z,1018.91
2022-08-08T05:04:29.525Z,1018.83
2022-08-08T05:05:44.482Z,1018.88
2022-08-08T05:06:29.588Z,1018.84
2022-08-08T05:07:38.051Z,1018.85
2022-08-08T05:08:29.480Z,1018.81
2022-08-08T05:09:29.131Z,1018.84
2022-08-08T05:10:28.617Z,1018.89
2022-08-08T05:11:28.464Z,1018.89
2022-08-08T05:12:34.829Z,1018.86
2022-08-08T05:13:29.423Z,1018.88
2022-08-08T05:14:29.169Z,1018.88
2022-08-08T05:16:47.786Z,1018.89
2022-08-08T05:16:52.685Z,1018.87
2022-08-08T05:17:29.384Z,1018.88
2022-08-08T05:18:29.368Z,1018.85
2022-08-08T05:20:09.195Z,1018.84
2022-08-08T05:20:29.349Z,1018.86
2022-08-08T05:21:28.355Z,1018.86
2022-08-08T05:22:29.671Z,1018.84
2022-08-08T05:23:29.757Z,1018.83
2022-08-08T05:24:28.318Z,1018.82
2022-08-08T05:25:28.296Z,1018.86
2022-08-08T05:26:29.303Z,1018.90
2022-08-08T05:27:33.499Z,1018.82
2022-08-08T05:28:55.837Z,1018.89
2022-08-08T05:29:29.467Z,1018.85
2022-08-08T05:30:28.781Z,1018.85
2022-08-08T05:32:03.372Z,1018.86
2022-08-08T05:32:33.061Z,1018.87
2022-08-08T05:33:37.585Z,1018.89
2022-08-08T05:34:29.190Z,1018.90
2022-08-08T05:35:28.179Z,1018.91
2022-08-08T05:36:28.383Z,1018.91
2022-08-08T05:37:39.024Z,1018.88
2022-08-08T05:38:31.660Z,1018.88
2022-08-08T05:39:28.581Z,1018.92
2022-08-08T05:40:29.201Z,1018.91
2022-08-08T05:41:28.262Z,1018.93
2022-08-08T05:42:28.247Z,1018.94
2022-08-08T05:43:39.340Z,1018.93
2022-08-08T05:44:31.145Z,1018.94
2022-08-08T05:45:31.283Z,1018.95
2022-08-08T05:46:28.051Z,1018.98
2022-08-08T05:47:41.574Z,1018.96
2022-08-08T05:48:31.154Z,1018.94
2022-08-08T05:49:28.017Z,1018.99
2022-08-08T05:50:28.008Z,1018.98
2022-08-08T05:51:27.991Z,1019.00
2022-08-08T05:52:33.906Z,1018.99
2022-08-08T05:54:24.265Z,1018.95
2022-08-08T05:54:49.986Z,1019.01
2022-08-08T05:55:28.948Z,1019.02
2022-08-08T05:56:28.936Z,1019.02
2022-08-08T05:58:03.988Z,1019.04
2022-08-08T05:58:32.039Z,1019.08
2022-08-08T05:59:58.585Z,1019.02
2022-08-08T06:00:28.935Z,1019.08
2022-08-08T06:01:56.656Z,1019.06
2022-08-08T06:02:28.885Z,1019.06
2022-08-08T06:03:29.560Z,1019.09
2022-08-08T06:04:27.977Z,1019.13
2022-08-08T06:05:34.731Z,1019.11
2022-08-08T06:06:32.603Z,1019.08
2022-08-08T06:07:29.102Z,1019.10
2022-08-08T06:08:28.559Z,1019.11
2022-08-08T06:10:00.005Z,1019.09
2022-08-08T06:10:28.816Z,1019.13
2022-08-08T06:11:27.996Z,1019.10
2022-08-08T06:12:29.888Z,1019.09
2022-08-08T06:13:27.750Z,1019.08
2022-08-08T06:14:28.738Z,1019.09
2022-08-08T06:15:31.709Z,1019.08
2022-08-08T06:16:30.538Z,1019.13
2022-08-08T06:17:32.173Z,1019.13
2022-08-08T06:18:29.124Z,1019.14
2022-08-08T06:19:27.679Z,1019.12
2022-08-08T06:20:27.666Z,1019.14
2022-08-08T06:21:28.219Z,1019.15
2022-08-08T06:22:32.695Z,1019.12
2022-08-08T06:23:53.111Z,1019.13
2022-08-08T06:24:31.178Z,1019.11
2022-08-08T06:26:35.185Z,1019.11
2022-08-08T06:26:38.788Z,1019.14
2022-08-08T06:27:28.840Z,1019.14
2022-08-08T06:28:29.127Z,1019.18
2022-08-08T06:29:56.747Z,1019.18
2022-08-08T06:30:29.187Z,1019.20
2022-08-08T06:31:52.549Z,1019.19
2022-08-08T06:32:28.554Z,1019.20
2022-08-08T06:33:37.088Z,1019.22
2022-08-08T06:34:28.569Z,1019.18
2022-08-08T06:36:07.628Z,1019.15
2022-08-08T06:36:28.487Z,1019.24
2022-08-08T06:37:27.479Z,1019.22
2022-08-08T06:38:28.976Z,1019.19
2022-08-08T06:39:27.518Z,1019.28
2022-08-08T06:40:28.490Z,1019.25
2022-08-08T06:41:29.588Z,1019.26
2022-08-08T06:42:28.433Z,1019.29
2022-08-08T06:43:33.735Z,1019.28
2022-08-08T06:44:29.152Z,1019.28
2022-08-08T06:45:27.392Z,1019.29
2022-08-08T06:46:30.106Z,1019.30
2022-08-08T06:47:33.445Z,1019.32
2022-08-08T06:48:28.379Z,1019.28
2022-08-08T06:49:55.294Z,1019.31
2022-08-08T06:50:32.214Z,1019.32
2022-08-08T06:51:46.687Z,1019.37
2022-08-08T06:52:28.321Z,1019.37
2022-08-08T06:53:39.207Z,1019.38
2022-08-08T06:54:28.304Z,1019.37
2022-08-08T06:55:27.502Z,1019.42
2022-08-08T06:56:27.268Z,1019.41
2022-08-08T06:57:29.398Z,1019.42
2022-08-08T06:58:30.460Z,1019.41
2022-08-08T06:59:27.233Z,1019.43
2022-08-08T07:00:30.071Z,1019.42
2022-08-08T07:02:26.655Z,1019.41
2022-08-08T07:02:29.548Z,1019.40
2022-08-08T07:03:52.765Z,1019.45
2022-08-08T07:04:38.778Z,1019.46
2022-08-08T07:05:29.904Z,1019.45
2022-08-08T07:06:28.155Z,1019.51
2022-08-08T07:07:27.563Z,1019.48
2022-08-08T07:08:27.137Z,1019.49
2022-08-08T07:09:45.122Z,1019.52
2022-08-08T07:10:28.112Z,1019.48
2022-08-08T07:11:27.106Z,1019.46
2022-08-08T07:12:30.607Z,1019.52
2022-08-08T07:13:27.086Z,1019.44
2022-08-08T07:14:27.086Z,1019.45
2022-08-08T07:16:03.598Z,1019.50
2022-08-08T07:16:29.096Z,1019.54
2022-08-08T07:17:31.656Z,1019.58
2022-08-08T07:18:36.547Z,1019.56
2022-08-08T07:19:28.039Z,1019.53
2022-08-08T07:20:28.268Z,1019.54
2022-08-08T07:21:26.998Z,1019.59
2022-08-08T07:22:26.986Z,1019.54
2022-08-08T07:23:26.975Z,1019.58
2022-08-08T07:24:27.189Z,1019.59
2022-08-08T07:25:29.441Z,1019.60
2022-08-08T07:26:29.125Z,1019.58
2022-08-08T07:27:47.417Z,1019.61
2022-08-08T07:28:31.570Z,1019.64
2022-08-08T07:29:59.631Z,1019.54
2022-08-08T07:30:27.976Z,1019.60
2022-08-08T07:31:26.889Z,1019.57
2022-08-08T07:32:26.879Z,1019.59
2022-08-08T07:33:26.887Z,1019.59
2022-08-08T07:34:32.036Z,1019.60
2022-08-08T07:35:26.847Z,1019.64
2022-08-08T07:36:26.832Z,1019.67
2022-08-08T07:37:26.830Z,1019.68
2022-08-08T07:38:27.843Z,1019.65
2022-08-08T07:39:29.337Z,1019.66
2022-08-08T07:40:29.961Z,1019.71
2022-08-08T07:41:27.788Z,1019.72
2022-08-08T07:42:33.258Z,1019.72
2022-08-08T07:43:36.739Z,1019.73
2022-08-08T07:44:37.344Z,1019.71
2022-08-08T07:45:34.800Z,1019.72
2022-08-08T07:46:30.615Z,1019.78
2022-08-08T07:47:38.573Z,1019.78
2022-08-08T07:48:29.924Z,1019.73
2022-08-08T07:49:26.704Z,1019.76
2022-08-08T07:50:26.692Z,1019.75
2022-08-08T07:51:44.826Z,1019.78
2022-08-08T07:52:27.712Z,1019.80
2022-08-08T07:54:00.822Z,1019.81
2022-08-08T07:54:27.656Z,1019.83
2022-08-08T07:55:28.979Z,1019.86
2022-08-08T07:56:35.426Z,1019.83
2022-08-08T07:57:27.780Z,1019.84
2022-08-08T07:58:26.865Z,1019.88
2022-08-08T07:59:26.609Z,1019.84
2022-08-08T08:00:27.880Z,1019.85
2022-08-08T08:01:27.112Z,1019.88
2022-08-08T08:02:33.285Z,1019.94
2022-08-08T08:03:28.389Z,1019.94
2022-08-08T08:04:26.571Z,1019.93
2022-08-08T08:05:33.428Z,1019.92
2022-08-08T08:06:27.550Z,1019.98
2022-08-08T08:07:32.141Z,1019.96
2022-08-08T08:08:27.515Z,1019.93
2022-08-08T08:09:26.605Z,1019.94
2022-08-08T08:10:30.543Z,1019.95
2022-08-08T08:11:38.036Z,1020.01
2022-08-08T08:12:35.172Z,1020.02
2022-08-08T08:13:43.185Z,1020.02
2022-08-08T08:14:27.454Z,1020.07
2022-08-08T08:15:26.468Z,1020.11
2022-08-08T08:16:27.437Z,1020.04
2022-08-08T08:17:26.431Z,1020.04
2022-08-08T08:18:32.451Z,1019.99
2022-08-08T08:19:27.420Z,1020.01
2022-08-08T08:20:30.201Z,1019.99
2022-08-08T08:21:56.856Z,1019.97
2022-08-08T08:22:33.595Z,1020.00
2022-08-08T08:23:27.576Z,1019.98
2022-08-08T08:24:30.654Z,1020.04
2022-08-08T08:25:42.249Z,1020.06
2022-08-08T08:26:28.538Z,1020.00
2022-08-08T08:27:26.330Z,1020.05
2022-08-08T08:28:26.345Z,1020.02
2022-08-08T08:29:27.745Z,1020.04
2022-08-08T08:30:26.543Z,1020.08
2022-08-08T08:31:26.291Z,1020.06
2022-08-08T08:32:35.903Z,1020.10
2022-08-08T08:33:27.291Z,1020.11
2022-08-08T08:34:32.222Z,1020.14
2022-08-08T08:35:29.734Z,1020.10
2022-08-08T08:36:27.574Z,1020.10
2022-08-08T08:37:30.124Z,1020.13
2022-08-08T08:38:26.225Z,1020.16
2022-08-08T08:40:00.011Z,1020.21
2022-08-08T08:40:27.240Z,1020.19
2022-08-08T08:41:26.202Z,1020.17
2022-08-08T08:42:29.146Z,1020.23
2022-08-08T08:43:29.262Z,1020.14
2022-08-08T08:44:29.045Z,1020.10
2022-08-08T08:45:26.510Z,1020.13
2022-08-08T08:46:26.149Z,1020.22
2022-08-08T08:47:26.379Z,1020.22
2022-08-08T08:48:26.154Z,1020.14
2022-08-08T08:49:30.672Z,1020.19
2022-08-08T08:50:31.693Z,1020.26
2022-08-08T08:51:27.130Z,1020.27
2022-08-08T08:52:28.825Z,1020.24
2022-08-08T08:53:54.617Z,1020.22
2022-08-08T08:54:27.072Z,1020.15
2022-08-08T08:55:27.151Z,1020.15
2022-08-08T08:56:26.058Z,1020.17
2022-08-08T08:57:26.131Z,1020.24
2022-08-08T08:58:26.039Z,1020.19
2022-08-08T08:59:57.540Z,1020.21
2022-08-08T09:00:35.535Z,1020.20
2022-08-08T09:01:27.052Z,1020.20
2022-08-08T09:02:26.042Z,1020.21
2022-08-08T09:03:31.436Z,1020.16
2022-08-08T09:04:31.878Z,1020.18
2022-08-08T09:05:49.213Z,1020.14
2022-08-08T09:06:31.944Z,1020.14
2022-08-08T09:07:39.367Z,1020.25
2022-08-08T09:08:26.947Z,1020.23
2022-08-08T09:09:40.166Z,1020.29
2022-08-08T09:10:28.226Z,1020.18
2022-08-08T09:11:25.942Z,1020.23
2022-08-08T09:12:27.451Z,1020.14
2022-08-08T09:13:28.039Z,1020.08
2022-08-08T09:14:26.145Z,1020.26
2022-08-08T09:15:41.482Z,1020.12
2022-08-08T09:16:29.012Z,1020.23
2022-08-08T09:17:40.962Z,1020.20
2022-08-08T09:18:26.866Z,1020.21
2022-08-08T09:21:56.664Z,1020.27
2022-08-08T09:21:57.060Z,1020.24
2022-08-08T09:22:01.477Z,1020.21
2022-08-08T09:22:27.411Z,1020.27
2022-08-08T09:23:33.379Z,1020.22
2022-08-08T09:24:26.804Z,1020.13
2022-08-08T09:25:47.475Z,1020.28
2022-08-08T09:26:26.805Z,1020.28
2022-08-08T09:27:41.821Z,1020.19
2022-08-08T09:28:37.315Z,1020.13
2022-08-08T09:29:26.754Z,1020.06
2022-08-08T09:30:25.754Z,1020.20
2022-08-08T09:31:25.759Z,1020.14
2022-08-08T09:32:31.138Z,1020.13
2022-08-08T09:34:15.931Z,1020.16
2022-08-08T09:34:32.549Z,1020.20
2022-08-08T09:35:32.344Z,1020.19
2022-08-08T09:36:26.716Z,1020.01
2022-08-08T09:37:39.631Z,1020.19
2022-08-08T09:38:28.587Z,1020.17
2022-08-08T09:39:25.753Z,1020.15
2022-08-08T09:40:41.667Z,1020.14
2022-08-08T09:41:26.673Z,1020.08
2022-08-08T09:42:27.396Z,1019.72
2022-08-08T09:44:05.809Z,1020.13
2022-08-08T09:44:33.731Z,1020.16
2022-08-08T09:45:54.710Z,1020.12
2022-08-08T09:46:31.278Z,1019.95
2022-08-08T09:48:04.400Z,1019.98
2022-08-08T09:48:33.731Z,1020.02
2022-08-08T09:49:42.386Z,1020.01
2022-08-08T09:50:26.579Z,1019.90
2022-08-08T09:51:25.848Z,1019.99
2022-08-08T09:52:56.669Z,1020.08
2022-08-08T09:53:53.043Z,1019.95
2022-08-08T09:54:36.468Z,1020.16
2022-08-08T09:55:51.594Z,1020.13
2022-08-08T09:56:27.823Z,1020.02
2022-08-08T09:57:25.518Z,1020.02
2022-08-08T09:58:33.179Z,1020.03
2022-08-08T10:00:02.237Z,1020.05
2022-08-08T10:00:37.674Z,1020.07
2022-08-08T10:01:59.940Z,1020.06
2022-08-08T10:02:29.322Z,1020.08
2022-08-08T10:03:25.483Z,1019.97
2022-08-08T10:04:41.595Z,1020.01
2022-08-08T10:05:26.553Z,1020.02
2022-08-08T10:06:29.290Z,1020.02
2022-08-08T10:07:25.868Z,1019.99
2022-08-08T10:08:25.439Z,1019.99
2022-08-08T10:09:26.415Z,1019.98
2022-08-08T10:10:30.381Z,1019.99
2022-08-08T10:12:27.632Z,1020.03
2022-08-08T10:12:37.902Z,1020.01
2022-08-08T10:13:32.165Z,1020.02
2022-08-08T10:14:28.636Z,1020.05
2022-08-08T10:15:26.365Z,1019.92
2022-08-08T10:16:26.860Z,1019.97
2022-08-08T10:17:57.161Z,1019.97
2022-08-08T10:18:26.805Z,1019.98
2022-08-08T10:19:25.338Z,1020.01
2022-08-08T10:20:40.270Z,1019.99
2022-08-08T10:21:32.873Z,1019.99
2022-08-08T10:22:26.307Z,1019.94
2022-08-08T10:23:43.332Z,1019.96
2022-08-08T10:24:29.538Z,1019.99
2022-08-08T10:25:25.373Z,1019.95
2022-08-08T10:26:52.097Z,1020.00
2022-08-08T10:27:26.270Z,1019.97
2022-08-08T10:28:25.711Z,1020.00
2022-08-08T10:29:31.105Z,1019.95
2022-08-08T10:31:00.731Z,1020.00
2022-08-08T10:31:46.838Z,1019.95
2022-08-08T10:32:26.328Z,1019.93
2022-08-08T10:33:38.288Z,1019.96
2022-08-08T10:34:27.537Z,1019.94
2022-08-08T10:36:12.529Z,1019.91
2022-08-08T10:36:26.191Z,1019.94
2022-08-08T10:37:25.186Z,1019.95
2022-08-08T10:38:25.195Z,1019.94
2022-08-08T10:39:31.474Z,1019.96
2022-08-08T10:40:26.230Z,1019.91
2022-08-08T10:41:26.153Z,1019.89
2022-08-08T10:42:27.335Z,1019.88
2022-08-08T10:43:25.134Z,1019.91
2022-08-08T10:44:26.230Z,1019.91
2022-08-08T10:45:25.113Z,1019.91
2022-08-08T10:46:29.625Z,1019.91
2022-08-08T10:47:26.113Z,1019.87
2022-08-08T10:48:26.092Z,1019.80
2022-08-08T10:49:26.925Z,1019.85
2022-08-08T10:50:26.139Z,1019.88
2022-08-08T10:51:25.945Z,1019.87
2022-08-08T10:52:29.993Z,1019.89
2022-08-08T10:53:56.495Z,1019.84
2022-08-08T10:54:27.095Z,1019.84
2022-08-08T10:55:39.954Z,1019.63
2022-08-08T10:56:27.773Z,1019.82
2022-08-08T10:57:45.012Z,1019.93
2022-08-08T10:58:26.009Z,1019.92
2022-08-08T10:59:25.000Z,1019.93
2022-08-08T11:00:26.069Z,1019.88
2022-08-08T11:01:25.321Z,1019.88
2022-08-08T11:02:27.158Z,1019.87
2022-08-08T11:03:37.033Z,1019.86
2022-08-08T11:04:38.747Z,1019.87
2022-08-08T11:05:26.107Z,1019.80
2022-08-08T11:06:25.961Z,1019.26
2022-08-08T11:07:39.054Z,1019.86
2022-08-08T11:08:30.730Z,1019.92
2022-08-08T11:09:25.925Z,1019.84
2022-08-08T11:10:28.630Z,1019.66
2022-08-08T11:11:59.759Z,1019.86
2022-08-08T11:12:28.572Z,1019.46
2022-08-08T11:13:28.158Z,1019.25
2022-08-08T11:14:26.439Z,1019.48
2022-08-08T11:15:30.937Z,1019.86
2022-08-08T11:16:32.904Z,1019.21
2022-08-08T11:17:58.458Z,1019.16
2022-08-08T11:18:26.420Z,1019.55
2022-08-08T11:19:24.837Z,1019.43
2022-08-08T11:20:27.439Z,1019.22
2022-08-08T11:21:24.824Z,1019.24
2022-08-08T11:22:26.935Z,1019.20
2022-08-08T11:23:24.798Z,1019.31
2022-08-08T11:24:25.800Z,1019.93
2022-08-08T11:25:52.099Z,1019.95
2022-08-08T11:26:27.879Z,1019.97
2022-08-08T11:27:24.785Z,1019.90
2022-08-08T11:28:24.971Z,1019.77
2022-08-08T11:29:41.492Z,1019.24
2022-08-08T11:30:27.458Z,1019.26
2022-08-08T11:31:25.731Z,1019.41
2022-08-08T11:32:29.421Z,1019.11
2022-08-08T11:33:35.306Z,1019.17
2022-08-08T11:34:34.450Z,1019.13
2022-08-08T11:35:38.333Z,1019.14
2022-08-08T11:36:27.828Z,1019.11
2022-08-08T11:38:36.161Z,1019.10
2022-08-08T11:38:38.721Z,1019.13
2022-08-08T11:39:25.716Z,1019.06
2022-08-08T11:40:26.594Z,1019.10
2022-08-08T11:41:24.917Z,1019.09
2022-08-08T11:42:26.915Z,1019.10
2022-08-08T11:43:24.641Z,1019.09
2022-08-08T11:44:29.096Z,1019.11
2022-08-08T11:45:24.602Z,1019.19
2022-08-08T11:46:24.623Z,1019.15
2022-08-08T11:47:24.577Z,1019.57
2022-08-08T11:48:27.838Z,1019.04
2022-08-08T11:49:24.573Z,1019.08
2022-08-08T11:50:24.921Z,1019.06
2022-08-08T11:51:29.829Z,1019.21
2022-08-08T11:52:27.461Z,1019.70
2022-08-08T11:53:25.514Z,1019.71
2022-08-08T11:54:31.039Z,1019.65
2022-08-08T11:55:25.524Z,1019.70
2022-08-08T11:56:24.493Z,1019.65
2022-08-08T11:57:27.590Z,1019.66
2022-08-08T11:58:24.472Z,1019.66
2022-08-08T11:59:58.210Z,1019.74
2022-08-08T12:00:25.470Z,1019.71
2022-08-08T12:01:24.495Z,1019.77
2022-08-08T12:02:33.057Z,1019.74
2022-08-08T12:03:30.484Z,1019.77
2022-08-08T12:04:25.438Z,1019.81